sensor_id;sensor_type;location;lat;lon;timestamp;pressure;altitude;pressure_sealevel;temperature;humidity
71057;BME280;58380;48.312;9.246;2022-09-03T06:47:09;93384.69;;;13.29;100.00
71057;BME280;58380;48.312;9.246;2022-09-03T06:49:35;93373.81;;;13.31;100.00
71057;BME280;58380;48.312;9.246;2022-09-03T06:52:00;93386.09;;;13.51;99.71
71057;BME280;58380;48.312;9.246;2022-09-03T06:54:26;93380.94;;;13.59;98.97
71057;BME280;58380;48.312;9.246;2022-09-03T06:56:51;93387.22;;;13.69;98.02
71057;BME280;58380;48.312;9.246;2022-09-03T06:59:17;93366.25;;;13.67;97.86
71057;BME280;58380;48.312;9.246;2022-09-03T07:01:42;93369.03;;;13.81;97.51
71057;BME280;58380;48.312;9.246;2022-09-03T07:04:09;93382.38;;;13.95;96.97
71057;BME280;58380;48.312;9.246;2022-09-03T07:06:38;93388.31;;;14.11;97.85
71057;BME280;58380;48.312;9.246;2022-09-03T07:09:07;93369.44;;;14.12;96.55
71057;BME280;58380;48.312;9.246;2022-09-03T07:11:34;93343.97;;;14.11;97.77
71057;BME280;58380;48.312;9.246;2022-09-03T07:14:02;93373.25;;;14.44;96.11
71057;BME280;58380;48.312;9.246;2022-09-03T07:16:33;93378.16;;;14.56;96.17
71057;BME280;58380;48.312;9.246;2022-09-03T07:19:00;93377.38;;;14.55;94.71
71057;BME280;58380;48.312;9.246;2022-09-03T07:21:28;93344.81;;;14.44;95.38
71057;BME280;58380;48.312;9.246;2022-09-03T07:23:56;93356.34;;;14.59;94.59
71057;BME280;58380;48.312;9.246;2022-09-03T07:26:24;93372.75;;;14.80;94.34
71057;BME280;58380;48.312;9.246;2022-09-03T07:28:52;93339.09;;;14.56;93.30
71057;BME280;58380;48.312;9.246;2022-09-03T07:31:32;93370.59;;;14.82;93.87
71057;BME280;58380;48.312;9.246;2022-09-03T07:34:02;93336.19;;;14.58;93.05
71057;BME280;58380;48.312;9.246;2022-09-03T07:36:34;93376.13;;;14.85;94.17
71057;BME280;58380;48.312;9.246;2022-09-03T07:39:03;93370.50;;;14.87;93.19
71057;BME280;58380;48.312;9.246;2022-09-03T07:41:30;93365.19;;;14.87;93.11
71057;BME280;58380;48.312;9.246;2022-09-03T07:43:59;93375.38;;;14.99;93.01
71057;BME280;58380;48.312;9.246;2022-09-03T07:46:31;93359.16;;;15.00;93.62
71057;BME280;58380;48.312;9.246;2022-09-03T07:48:59;93377.06;;;15.08;91.88
71057;BME280;58380;48.312;9.246;2022-09-03T07:51:28;93375.19;;;15.09;92.22
71057;BME280;58380;48.312;9.246;2022-09-03T07:54:00;93378.09;;;15.13;93.44
71057;BME280;58380;48.312;9.246;2022-09-03T07:56:29;93380.00;;;15.07;91.27
71057;BME280;58380;48.312;9.246;2022-09-03T07:58:55;93377.06;;;15.08;92.09
71057;BME280;58380;48.312;9.246;2022-09-03T08:01:23;93371.25;;;15.06;92.43
71057;BME280;58380;48.312;9.246;2022-09-03T08:03:51;93375.81;;;15.20;91.18
71057;BME280;58380;48.312;9.246;2022-09-03T08:06:19;93350.91;;;15.16;92.08
71057;BME280;58380;48.312;9.246;2022-09-03T08:08:47;93373.78;;;15.44;91.38
71057;BME280;58380;48.312;9.246;2022-09-03T08:13:40;93381.03;;;15.71;88.07
71057;BME280;58380;48.312;9.246;2022-09-03T08:16:09;93355.47;;;15.57;88.07
71057;BME280;58380;48.312;9.246;2022-09-03T08:18:38;93395.53;;;15.79;87.43
71057;BME280;58380;48.312;9.246;2022-09-03T08:21:06;93382.34;;;15.88;89.04
71057;BME280;58380;48.312;9.246;2022-09-03T08:23:39;93389.41;;;15.92;87.06
71057;BME280;58380;48.312;9.246;2022-09-03T08:26:07;93364.47;;;15.61;85.36
71057;BME280;58380;48.312;9.246;2022-09-03T08:28:34;93389.25;;;15.75;86.28
71057;BME280;58380;48.312;9.246;2022-09-03T08:31:13;93372.72;;;15.59;87.25
71057;BME280;58380;48.312;9.246;2022-09-03T08:33:43;93391.47;;;15.82;86.65
71057;BME280;58380;48.312;9.246;2022-09-03T08:36:13;93400.94;;;15.74;86.47
71057;BME280;58380;48.312;9.246;2022-09-03T08:38:42;93400.56;;;15.81;87.04
71057;BME280;58380;48.312;9.246;2022-09-03T08:41:17;93387.72;;;15.69;87.49
71057;BME280;58380;48.312;9.246;2022-09-03T08:47:48;93409.53;;;15.99;86.27
71057;BME280;58380;48.312;9.246;2022-09-03T08:50:28;93395.34;;;15.76;86.67
71057;BME280;58380;48.312;9.246;2022-09-03T08:53:02;93420.97;;;15.85;88.43
71057;BME280;58380;48.312;9.246;2022-09-03T08:55:46;93404.69;;;15.73;87.43
71057;BME280;58380;48.312;9.246;2022-09-03T08:58:21;93413.97;;;15.89;87.43
71057;BME280;58380;48.312;9.246;2022-09-03T09:01:01;93406.47;;;16.05;89.96
71057;BME280;58380;48.312;9.246;2022-09-03T09:03:52;93414.94;;;16.21;86.76
71057;BME280;58380;48.312;9.246;2022-09-03T09:12:39;93417.72;;;16.66;86.70
71057;BME280;58380;48.312;9.246;2022-09-03T09:18:07;93428.41;;;17.25;84.45
71057;BME280;58380;48.312;9.246;2022-09-03T09:20:47;93423.50;;;17.50;81.51
71057;BME280;58380;48.312;9.246;2022-09-03T09:23:31;93426.41;;;17.62;80.85
71057;BME280;58380;48.312;9.246;2022-09-03T09:26:05;93382.75;;;17.58;81.36
71057;BME280;58380;48.312;9.246;2022-09-03T09:28:36;93331.72;;;17.59;78.94
71057;BME280;58380;48.312;9.246;2022-09-03T09:31:11;93394.16;;;18.29;79.11
71057;BME280;58380;48.312;9.246;2022-09-03T09:33:40;93419.84;;;18.48;75.89
71057;BME280;58380;48.312;9.246;2022-09-03T09:36:12;93408.28;;;18.21;74.51
71057;BME280;58380;48.312;9.246;2022-09-03T09:38:42;93415.38;;;18.26;77.00
71057;BME280;58380;48.312;9.246;2022-09-03T09:41:16;93425.00;;;18.36;77.25
71057;BME280;58380;48.312;9.246;2022-09-03T09:43:45;93396.53;;;18.22;75.79
71057;BME280;58380;48.312;9.246;2022-09-03T09:46:20;93406.59;;;18.25;76.57
71057;BME280;58380;48.312;9.246;2022-09-03T09:48:52;93401.53;;;18.15;77.87
71057;BME280;58380;48.312;9.246;2022-09-03T09:51:27;93400.47;;;18.33;76.15
71057;BME280;58380;48.312;9.246;2022-09-03T09:54:07;93395.47;;;18.49;77.16
71057;BME280;58380;48.312;9.246;2022-09-03T09:56:38;93402.53;;;18.54;74.67
71057;BME280;58380;48.312;9.246;2022-09-03T09:59:08;93406.47;;;18.57;74.81
71057;BME280;58380;48.312;9.246;2022-09-03T10:01:37;93395.44;;;18.32;76.13
71057;BME280;58380;48.312;9.246;2022-09-03T10:04:20;93396.84;;;18.29;75.68
71057;BME280;58380;48.312;9.246;2022-09-03T10:07:21;93390.25;;;18.44;76.62
71057;BME280;58380;48.312;9.246;2022-09-03T10:10:18;93412.19;;;18.81;76.83
71057;BME280;58380;48.312;9.246;2022-09-03T10:12:55;93416.59;;;19.03;77.67
71057;BME280;58380;48.312;9.246;2022-09-03T10:15:32;93398.34;;;19.14;78.14
71057;BME280;58380;48.312;9.246;2022-09-03T10:18:45;93415.16;;;19.32;74.69
71057;BME280;58380;48.312;9.246;2022-09-03T10:21:50;93403.19;;;19.29;75.52
71057;BME280;58380;48.312;9.246;2022-09-03T10:24:40;93416.09;;;19.36;74.46
71057;BME280;58380;48.312;9.246;2022-09-03T10:27:17;93416.09;;;19.36;76.18
71057;BME280;58380;48.312;9.246;2022-09-03T10:29:44;93414.19;;;19.36;75.32
71057;BME280;58380;48.312;9.246;2022-09-03T10:32:43;93418.00;;;19.35;75.79
71057;BME280;58380;48.312;9.246;2022-09-03T10:46:45;93401.72;;;19.49;73.47
71057;BME280;58380;48.312;9.246;2022-09-03T10:49:41;93410.09;;;19.48;74.21
71057;BME280;58380;48.312;9.246;2022-09-03T10:55:43;93372.72;;;18.95;74.29
71057;BME280;58380;48.312;9.246;2022-09-03T11:01:04;93384.53;;;18.77;75.46
71057;BME280;58380;48.312;9.246;2022-09-03T11:03:48;93376.31;;;18.65;76.92
71057;BME280;58380;48.312;9.246;2022-09-03T11:06:28;93377.88;;;18.57;76.67
71057;BME280;58380;48.312;9.246;2022-09-03T11:09:12;93381.81;;;18.60;77.77
71057;BME280;58380;48.312;9.246;2022-09-03T11:11:58;93353.94;;;18.26;78.84
71057;BME280;58380;48.312;9.246;2022-09-03T11:14:39;93390.56;;;18.34;80.48
71057;BME280;58380;48.312;9.246;2022-09-03T11:17:12;93381.91;;;18.20;83.49
71057;BME280;58380;48.312;9.246;2022-09-03T11:20:05;93383.28;;;18.00;84.86
71057;BME280;58380;48.312;9.246;2022-09-03T11:22:33;93368.72;;;17.75;87.52
71057;BME280;58380;48.312;9.246;2022-09-03T11:25:04;93396.25;;;17.61;88.02
71057;BME280;58380;48.312;9.246;2022-09-03T11:30:10;93483.75;;;16.69;86.00
71057;BME280;58380;48.312;9.246;2022-09-03T11:32:52;93565.72;;;15.51;89.57
71057;BME280;58380;48.312;9.246;2022-09-03T11:38:00;93563.69;;;12.62;94.24
71057;BME280;58380;48.312;9.246;2022-09-03T11:40:35;93511.81;;;11.96;93.45
71057;BME280;58380;48.312;9.246;2022-09-03T11:43:30;93500.94;;;11.82;97.77
71057;BME280;58380;48.312;9.246;2022-09-03T11:48:48;93453.91;;;11.69;98.91
71057;BME280;58380;48.312;9.246;2022-09-03T11:51:29;93503.28;;;12.14;100.00
71057;BME280;58380;48.312;9.246;2022-09-03T11:54:22;93491.59;;;12.20;100.00
71057;BME280;58380;48.312;9.246;2022-09-03T11:56:50;93455.38;;;12.21;100.00
71057;BME280;58380;48.312;9.246;2022-09-03T11:59:30;93464.16;;;12.61;100.00
71057;BME280;58380;48.312;9.246;2022-09-03T12:02:01;93463.69;;;12.88;100.00
71057;BME280;58380;48.312;9.246;2022-09-03T12:04:47;93423.06;;;13.03;100.00
71057;BME280;58380;48.312;9.246;2022-09-03T12:07:37;93436.50;;;13.46;100.00
71057;BME280;58380;48.312;9.246;2022-09-03T12:10:26;93398.56;;;13.45;100.00
71057;BME280;58380;48.312;9.246;2022-09-03T12:22:26;93388.69;;;14.80;95.21
71057;BME280;58380;48.312;9.246;2022-09-03T12:27:43;93392.44;;;15.12;94.24
71057;BME280;58380;48.312;9.246;2022-09-03T12:30:17;93355.56;;;14.91;92.56
71057;BME280;58380;48.312;9.246;2022-09-03T12:32:46;93404.97;;;15.25;93.14
71057;BME280;58380;48.312;9.246;2022-09-03T12:35:14;93428.28;;;15.47;92.72
71057;BME280;58380;48.312;9.246;2022-09-03T12:37:43;93405.28;;;15.37;92.41
71057;BME280;58380;48.312;9.246;2022-09-03T12:40:22;93425.50;;;15.71;92.90
71057;BME280;58380;48.312;9.246;2022-09-03T12:42:50;93430.22;;;15.74;94.51
71057;BME280;58380;48.312;9.246;2022-09-03T12:45:24;93438.31;;;15.96;94.86
71057;BME280;58380;48.312;9.246;2022-09-03T12:47:51;93442.06;;;16.09;93.08
71057;BME280;58380;48.312;9.246;2022-09-03T12:50:23;93425.59;;;16.07;90.22
71057;BME280;58380;48.312;9.246;2022-09-03T12:52:58;93452.81;;;16.32;92.99
71057;BME280;58380;48.312;9.246;2022-09-03T13:00:23;93441.03;;;16.47;92.76
71057;BME280;58380;48.312;9.246;2022-09-03T13:02:59;93449.63;;;16.57;90.90
71057;BME280;58380;48.312;9.246;2022-09-03T13:05:31;93461.44;;;16.79;89.93
71057;BME280;58380;48.312;9.246;2022-09-03T13:08:01;93449.78;;;16.75;87.12
71057;BME280;58380;48.312;9.246;2022-09-03T13:10:34;93398.63;;;16.50;83.90
71057;BME280;58380;48.312;9.246;2022-09-03T13:13:27;93474.31;;;16.99;84.30
71057;BME280;58380;48.312;9.246;2022-09-03T13:18:48;93444.56;;;16.84;88.49
71057;BME280;58380;48.312;9.246;2022-09-03T13:30:19;93483.56;;;16.66;81.21
71057;BME280;58380;48.312;9.246;2022-09-03T13:33:26;93480.41;;;16.50;78.19
71057;BME280;58380;48.312;9.246;2022-09-03T13:36:02;93487.72;;;16.58;82.95
71057;BME280;58380;48.312;9.246;2022-09-03T13:38:58;93458.19;;;16.68;81.13
71057;BME280;58380;48.312;9.246;2022-09-03T13:41:46;93463.78;;;17.17;82.69
71057;BME280;58380;48.312;9.246;2022-09-03T13:50:36;93472.59;;;17.85;74.37
71057;BME280;58380;48.312;9.246;2022-09-03T13:53:31;93443.88;;;17.99;73.09
71057;BME280;58380;48.312;9.246;2022-09-03T14:02:50;93456.72;;;18.28;72.68
71057;BME280;58380;48.312;9.246;2022-09-03T14:08:44;93408.66;;;17.57;73.47
71057;BME280;58380;48.312;9.246;2022-09-03T14:14:43;93415.53;;;18.21;71.84
71057;BME280;58380;48.312;9.246;2022-09-03T14:17:42;93429.38;;;18.31;71.05
71057;BME280;58380;48.312;9.246;2022-09-03T14:26:04;93415.16;;;19.32;70.45
71057;BME280;58380;48.312;9.246;2022-09-03T14:28:36;93393.75;;;19.40;68.53
71057;BME280;58380;48.312;9.246;2022-09-03T14:34:13;93434.56;;;19.93;66.11
71057;BME280;58380;48.312;9.246;2022-09-03T14:36:57;93437.97;;;20.11;65.88
71057;BME280;58380;48.312;9.246;2022-09-03T14:40:02;93401.75;;;20.05;67.06
71057;BME280;58380;48.312;9.246;2022-09-03T14:42:43;93434.13;;;20.30;66.25
71057;BME280;58380;48.312;9.246;2022-09-03T14:45:56;93437.84;;;20.37;65.02
71057;BME280;58380;48.312;9.246;2022-09-03T14:48:48;93429.91;;;20.20;60.19
71057;BME280;58380;48.312;9.246;2022-09-03T14:51:35;93399.56;;;19.98;60.52
71057;BME280;58380;48.312;9.246;2022-09-03T14:54:29;93437.56;;;20.30;63.78
71057;BME280;58380;48.312;9.246;2022-09-03T14:57:34;93429.81;;;20.37;62.16
71057;BME280;58380;48.312;9.246;2022-09-03T15:00:20;93386.16;;;20.07;60.41
71057;BME280;58380;48.312;9.246;2022-09-03T15:12:36;93437.69;;;20.93;60.23
71057;BME280;58380;48.312;9.246;2022-09-03T15:15:21;93373.56;;;20.29;59.28
71057;BME280;58380;48.312;9.246;2022-09-03T15:18:02;93431.59;;;20.54;58.63
71057;BME280;58380;48.312;9.246;2022-09-03T15:21:24;93449.13;;;20.60;62.31
71057;BME280;58380;48.312;9.246;2022-09-03T15:30:13;93431.00;;;20.48;60.71
71057;BME280;58380;48.312;9.246;2022-09-03T15:32:52;93424.66;;;20.32;61.55
71057;BME280;58380;48.312;9.246;2022-09-03T15:35:49;93425.97;;;20.47;62.23
71057;BME280;58380;48.312;9.246;2022-09-03T15:41:51;93436.13;;;20.92;62.30
71057;BME280;58380;48.312;9.246;2022-09-03T15:44:27;93437.19;;;21.00;59.77
71057;BME280;58380;48.312;9.246;2022-09-03T15:50:24;93435.13;;;20.55;59.39
71057;BME280;58380;48.312;9.246;2022-09-03T15:53:14;93420.44;;;20.52;60.45
71057;BME280;58380;48.312;9.246;2022-09-03T15:56:01;93412.63;;;20.38;60.47
71057;BME280;58380;48.312;9.246;2022-09-03T16:06:52;93374.53;;;19.47;61.82
71057;BME280;58380;48.312;9.246;2022-09-03T16:09:52;93429.31;;;19.67;63.39
71057;BME280;58380;48.312;9.246;2022-09-03T16:13:00;93335.25;;;19.04;66.61
71057;BME280;58380;48.312;9.246;2022-09-03T16:15:47;93443.25;;;19.81;65.34
71057;BME280;58380;48.312;9.246;2022-09-03T16:18:36;93373.13;;;19.32;66.81
71057;BME280;58380;48.312;9.246;2022-09-03T16:24:02;93413.56;;;19.48;68.57
71057;BME280;58380;48.312;9.246;2022-09-03T16:26:50;93364.50;;;19.18;67.72
71057;BME280;58380;48.312;9.246;2022-09-03T17:01:58;93409.94;;;17.60;78.02
71057;BME280;58380;48.312;9.246;2022-09-03T17:11:56;93462.72;;;17.72;79.13
71057;BME280;58380;48.312;9.246;2022-09-03T17:25:51;93473.06;;;17.42;82.39
71057;BME280;58380;48.312;9.246;2022-09-03T17:34:55;93486.78;;;17.27;84.24
71057;BME280;58380;48.312;9.246;2022-09-03T17:40:34;93481.56;;;17.21;85.42
71057;BME280;58380;48.312;9.246;2022-09-03T17:46:55;93476.03;;;16.95;86.24
71057;BME280;58380;48.312;9.246;2022-09-03T17:49:40;93447.63;;;16.63;87.01
71057;BME280;58380;48.312;9.246;2022-09-03T17:55:16;93486.81;;;16.63;87.69
71057;BME280;58380;48.312;9.246;2022-09-03T17:57:49;93476.19;;;16.35;88.44
71057;BME280;58380;48.312;9.246;2022-09-03T18:00:33;93489.91;;;16.28;88.85
71057;BME280;58380;48.312;9.246;2022-09-03T18:03:12;93468.09;;;15.99;89.21
71057;BME280;58380;48.312;9.246;2022-09-03T18:05:50;93467.88;;;15.81;90.13
71057;BME280;58380;48.312;9.246;2022-09-03T18:11:39;93522.63;;;16.01;91.14
71057;BME280;58380;48.312;9.246;2022-09-03T18:14:19;93491.16;;;15.76;90.43
71057;BME280;58380;48.312;9.246;2022-09-03T18:17:02;93476.28;;;15.56;90.22
71057;BME280;58380;48.312;9.246;2022-09-03T18:19:49;93519.19;;;15.68;91.35
71057;BME280;58380;48.312;9.246;2022-09-03T18:26:03;93519.09;;;15.40;92.38
71057;BME280;58380;48.312;9.246;2022-09-03T18:29:02;93533.47;;;15.39;93.55
71057;BME280;58380;48.312;9.246;2022-09-03T18:31:53;93498.28;;;15.09;93.28
71057;BME280;58380;48.312;9.246;2022-09-03T18:34:38;93530.88;;;15.34;92.52
71057;BME280;58380;48.312;9.246;2022-09-03T18:37:25;93533.19;;;15.41;91.92
71057;BME280;58380;48.312;9.246;2022-09-03T18:40:16;93544.75;;;15.31;92.72
71057;BME280;58380;48.312;9.246;2022-09-03T18:43:28;93548.63;;;15.20;93.37
71057;BME280;58380;48.312;9.246;2022-09-03T18:49:59;93536.34;;;14.86;94.09
71057;BME280;58380;48.312;9.246;2022-09-03T18:59:22;93554.06;;;14.72;94.24
71057;BME280;58380;48.312;9.246;2022-09-03T19:16:09;93566.72;;;14.32;94.88
71057;BME280;58380;48.312;9.246;2022-09-03T19:19:29;93560.47;;;14.17;95.05
71057;BME280;58380;48.312;9.246;2022-09-03T19:22:27;93546.91;;;13.95;94.76
71057;BME280;58380;48.312;9.246;2022-09-03T19:25:17;93565.38;;;14.05;95.04
71057;BME280;58380;48.312;9.246;2022-09-03T19:28:05;93575.69;;;14.12;95.26
71057;BME280;58380;48.312;9.246;2022-09-03T19:34:05;93542.72;;;13.59;95.53
71057;BME280;58380;48.312;9.246;2022-09-03T19:37:39;93570.72;;;13.76;95.40
71057;BME280;58380;48.312;9.246;2022-09-03T19:40:56;93564.41;;;13.67;95.72
71057;BME280;58380;48.312;9.246;2022-09-03T19:47:25;93592.53;;;13.63;95.59
71057;BME280;58380;48.312;9.246;2022-09-03T19:50:32;93536.94;;;13.13;95.88
71057;BME280;58380;48.312;9.246;2022-09-03T19:53:24;93569.69;;;13.32;95.99
71057;BME280;58380;48.312;9.246;2022-09-03T19:56:26;93587.66;;;13.46;95.62
71057;BME280;58380;48.312;9.246;2022-09-03T19:59:18;93563.13;;;13.20;95.76
71057;BME280;58380;48.312;9.246;2022-09-03T20:02:04;93583.25;;;13.31;95.74
71057;BME280;58380;48.312;9.246;2022-09-03T20:04:59;93596.25;;;13.22;96.00
71057;BME280;58380;48.312;9.246;2022-09-03T20:07:49;93583.63;;;13.04;96.03
71057;BME280;58380;48.312;9.246;2022-09-03T20:10:37;93576.75;;;12.98;96.14
71057;BME280;58380;48.312;9.246;2022-09-03T20:13:07;93603.47;;;13.11;95.92
71057;BME280;58380;48.312;9.246;2022-09-03T20:18:45;93586.63;;;12.87;95.56
71057;BME280;58380;48.312;9.246;2022-09-03T20:21:24;93584.03;;;12.77;95.34
71057;BME280;58380;48.312;9.246;2022-09-03T20:27:17;93613.38;;;12.95;97.07
71057;BME280;58380;48.312;9.246;2022-09-03T20:30:26;93572.16;;;12.69;96.91
71057;BME280;58380;48.312;9.246;2022-09-03T20:33:19;93584.03;;;12.77;96.89
71057;BME280;58380;48.312;9.246;2022-09-03T20:36:23;93594.09;;;12.74;97.10
71057;BME280;58380;48.312;9.246;2022-09-03T20:45:26;93517.50;;;12.34;96.96
71057;BME280;58380;48.312;9.246;2022-09-03T20:48:38;93629.25;;;12.95;96.73
71057;BME280;58380;48.312;9.246;2022-09-03T20:51:35;93623.47;;;12.83;97.10
71057;BME280;58380;48.312;9.246;2022-09-03T20:54:12;93619.28;;;12.72;96.87
71057;BME280;58380;48.312;9.246;2022-09-03T20:57:12;93637.25;;;12.80;97.53
71057;BME280;58380;48.312;9.246;2022-09-03T21:02:45;93614.06;;;12.46;96.89
71057;BME280;58380;48.312;9.246;2022-09-03T21:05:30;93622.53;;;12.54;96.73
71057;BME280;58380;48.312;9.246;2022-09-03T21:11:13;93622.78;;;12.47;96.75
71057;BME280;58380;48.312;9.246;2022-09-03T21:14:14;93647.63;;;12.66;96.84
71057;BME280;58380;48.312;9.246;2022-09-03T21:19:42;93652.13;;;12.71;97.21
71057;BME280;58380;48.312;9.246;2022-09-03T21:25:08;93650.00;;;12.63;97.47
71057;BME280;58380;48.312;9.246;2022-09-03T21:27:50;93651.66;;;12.54;97.44
71057;BME280;58380;48.312;9.246;2022-09-03T21:30:20;93619.94;;;12.33;97.40
71057;BME280;58380;48.312;9.246;2022-09-03T21:32:55;93646.06;;;12.50;97.27
71057;BME280;58380;48.312;9.246;2022-09-03T21:35:29;93642.66;;;12.49;97.45
71057;BME280;58380;48.312;9.246;2022-09-03T21:38:05;93644.25;;;12.50;97.54
71057;BME280;58380;48.312;9.246;2022-09-03T21:41:06;93628.91;;;12.37;97.61
71057;BME280;58380;48.312;9.246;2022-09-03T21:44:07;93655.91;;;12.44;97.68
71057;BME280;58380;48.312;9.246;2022-09-03T21:46:48;93653.50;;;12.48;97.52
71057;BME280;58380;48.312;9.246;2022-09-03T21:49:34;93662.25;;;12.48;97.28
71057;BME280;58380;48.312;9.246;2022-09-03T21:52:13;93650.63;;;12.39;97.35
71057;BME280;58380;48.312;9.246;2022-09-03T21:54:43;93627.09;;;12.22;97.28
71057;BME280;58380;48.312;9.246;2022-09-03T22:02:29;93632.38;;;12.22;97.23
71057;BME280;58380;48.312;9.246;2022-09-03T22:05:02;93630.00;;;12.21;97.35
71057;BME280;58380;48.312;9.246;2022-09-03T22:07:43;93675.53;;;12.33;97.20
71057;BME280;58380;48.312;9.246;2022-09-03T22:10:52;93668.38;;;12.18;97.03
71057;BME280;58380;48.312;9.246;2022-09-03T22:14:00;93665.47;;;12.09;97.01
71057;BME280;58380;48.312;9.246;2022-09-03T22:19:32;93670.78;;;11.94;97.36
71057;BME280;58380;48.312;9.246;2022-09-03T22:22:14;93660.94;;;11.84;98.04
71057;BME280;58380;48.312;9.246;2022-09-03T22:25:02;93633.97;;;11.67;98.25
71057;BME280;58380;48.312;9.246;2022-09-03T22:27:53;93677.91;;;11.89;97.84
71057;BME280;58380;48.312;9.246;2022-09-03T22:30:49;93675.75;;;11.80;97.85
71057;BME280;58380;48.312;9.246;2022-09-03T22:33:59;93678.38;;;11.75;98.26
71057;BME280;58380;48.312;9.246;2022-09-03T22:36:53;93668.34;;;11.67;97.97
71057;BME280;58380;48.312;9.246;2022-09-03T22:39:39;93682.63;;;11.71;97.93
71057;BME280;58380;48.312;9.246;2022-09-03T22:45:22;93654.84;;;11.53;97.94
71057;BME280;58380;48.312;9.246;2022-09-03T22:48:38;93688.41;;;11.63;98.22
71057;BME280;58380;48.312;9.246;2022-09-03T22:51:06;93660.94;;;11.49;98.15
71057;BME280;58380;48.312;9.246;2022-09-03T22:54:04;93637.13;;;11.33;97.95
